Time;durP1;ratioP1;P1;durP2;ratioP2;P2;SDS_P1;SDS_P2;PMS_P1;PMS_P2;Temp;Humidity;BMP_temperature;BMP_pressure;BME280_temperature;BME280_humidity;BME280_pressure;Samples;Min_cycle;Max_cycle;Signal;HPM_P1;HPM_P2
2023/05/15 00:00:15;;;;;;;23.77;18.30;;;;;;;11.67;80.18;100683.03;4983220;28;20501;-78
2023/05/15 00:02:45;;;;;;;19.90;17.90;;;;;;;11.67;79.77;100678.47;4984617;28;20417;-79
2023/05/15 00:05:15;;;;;;;25.20;16.70;;;;;;;11.66;79.70;100668.69;4982407;28;20800;-78
2023/05/15 00:07:44;;;;;;;20.83;16.90;;;;;;;11.64;79.49;100672.66;4982622;28;20418;-79
2023/05/15 00:10:14;;;;;;;18.87;16.73;;;;;;;11.62;79.51;100670.13;4999624;28;20478;-80
2023/05/15 00:12:43;;;;;;;18.47;16.53;;;;;;;11.61;79.10;100657.66;4986283;28;20945;-78
2023/05/15 00:15:12;;;;;;;14.47;13.00;;;;;;;11.62;78.87;100663.88;4983379;28;20435;-79
2023/05/15 00:17:41;;;;;;;16.93;15.17;;;;;;;11.65;79.01;100658.88;4982971;28;20441;-81
2023/05/15 00:20:12;;;;;;;17.03;15.37;;;;;;;11.70;78.71;100652.81;4979510;28;20445;-78
2023/05/15 00:22:41;;;;;;;15.00;13.60;;;;;;;11.70;78.64;100648.22;4980519;28;20431;-82
2023/05/15 00:25:10;;;;;;;17.37;15.57;;;;;;;11.60;79.08;100650.56;4981448;28;20489;-80
2023/05/15 00:27:39;;;;;;;18.20;16.40;;;;;;;11.55;79.72;100647.66;4983272;28;20843;-78
2023/05/15 00:30:09;;;;;;;18.10;16.50;;;;;;;11.49;80.17;100643.09;4982257;28;20483;-79
2023/05/15 00:32:40;;;;;;;17.97;16.37;;;;;;;11.48;80.42;100644.13;4983247;28;20444;-80
2023/05/15 00:35:10;;;;;;;16.17;14.63;;;;;;;11.32;81.46;100641.91;4985491;28;20494;-80
2023/05/15 00:37:39;;;;;;;17.57;15.70;;;;;;;11.14;82.18;100633.59;4985394;28;20429;-79
2023/05/15 00:40:13;;;;;;;16.53;14.83;;;;;;;11.00;83.11;100632.81;4982810;28;20865;-78
2023/05/15 00:42:43;;;;;;;17.20;15.43;;;;;;;10.86;83.87;100631.16;4984236;28;20823;-80
2023/05/15 00:45:12;;;;;;;18.10;15.40;;;;;;;10.75;84.31;100629.09;4982219;28;20477;-79
2023/05/15 00:47:42;;;;;;;17.73;16.00;;;;;;;10.82;84.50;100621.81;4984378;28;20441;-79
2023/05/15 00:50:13;;;;;;;19.73;16.07;;;;;;;10.81;84.62;100615.56;4984172;28;20864;-78
2023/05/15 00:52:43;;;;;;;18.27;16.43;;;;;;;10.90;83.90;100616.16;4991261;28;20421;-78
2023/05/15 00:55:13;;;;;;;17.90;16.03;;;;;;;10.95;84.45;100605.53;5001371;28;20892;-78
2023/05/15 00:57:44;;;;;;;18.23;16.43;;;;;;;11.02;84.65;100605.53;4995171;28;20428;-79
2023/05/15 01:00:17;;;;;;;21.43;16.87;;;;;;;10.82;84.98;100603.69;4996207;28;20421;-79
2023/05/15 01:02:46;;;;;;;16.73;15.03;;;;;;;10.74;85.99;100600.38;4995180;28;20416;-79
2023/05/15 01:05:17;;;;;;;19.40;17.50;;;;;;;10.66;86.11;100598.72;4995675;28;20457;-79
2023/05/15 01:07:52;;;;;;;19.00;17.00;;;;;;;10.61;86.29;100593.09;4996219;28;20461;-80
2023/05/15 01:10:22;;;;;;;18.33;16.33;;;;;;;10.59;86.89;100597.91;4998648;28;20434;-79
2023/05/15 01:12:55;;;;;;;18.63;15.50;;;;;;;10.56;87.39;100583.94;5000723;28;20437;-79
2023/05/15 01:15:26;;;;;;;17.73;15.20;;;;;;;10.65;87.21;100591.63;4997517;28;20452;-78
2023/05/15 01:17:55;;;;;;;18.77;16.67;;;;;;;10.62;87.19;100592.06;4993907;28;20569;-80
2023/05/15 01:20:28;;;;;;;20.20;17.97;;;;;;;10.70;87.18;100585.59;4994068;28;20438;-79
2023/05/15 01:23:11;;;;;;;22.00;17.10;;;;;;;10.81;86.56;100585.78;5004580;28;20421;-78
2023/05/15 01:26:23;;;;;;;19.67;15.70;;;;;;;10.72;85.91;100581.63;4998412;28;20513;-79
2023/05/15 01:28:59;;;;;;;19.63;16.37;;;;;;;10.66;86.11;100579.78;5009006;28;20481;-80
2023/05/15 01:31:35;;;;;;;20.83;17.27;;;;;;;10.71;86.27;100579.97;5013926;28;20520;-79
2023/05/15 01:34:08;;;;;;;18.23;16.33;;;;;;;10.53;86.34;100579.78;5007037;28;20445;-78
2023/05/15 01:36:43;;;;;;;21.57;16.70;;;;;;;10.43;87.10;100580.22;4998196;28;20447;-78
2023/05/15 01:39:16;;;;;;;21.03;17.83;;;;;;;10.34;87.48;100583.34;4998701;28;20419;-80
2023/05/15 01:41:55;;;;;;;18.80;17.10;;;;;;;10.32;88.49;100580.00;4997878;28;20430;-78
2023/05/15 01:44:30;;;;;;;19.40;17.50;;;;;;;10.38;88.69;100573.75;4997507;28;20680;-78
2023/05/15 01:47:07;;;;;;;21.00;16.37;;;;;;;10.46;88.30;100576.25;4978978;28;20401;-79
2023/05/15 01:49:38;;;;;;;18.67;16.50;;;;;;;10.29;89.00;100575.00;4997888;28;20738;-78
2023/05/15 01:52:13;;;;;;;18.60;16.77;;;;;;;10.30;89.34;100574.81;5000954;28;20438;-78
2023/05/15 01:54:43;;;;;;;17.85;16.23;;;;;;;10.17;89.36;100576.66;4998754;28;20525;-78
2023/05/15 01:57:14;;;;;;;21.63;17.60;;;;;;;10.11;89.85;100572.06;4999152;28;20188;-77
2023/05/15 01:59:46;;;;;;;19.87;17.80;;;;;;;10.04;90.29;100567.47;4998067;28;20477;-78
2023/05/15 02:02:16;;;;;;;21.27;17.60;;;;;;;10.29;89.82;100556.09;4997873;28;20489;-78
2023/05/15 02:04:46;;;;;;;19.10;17.20;;;;;;;10.38;88.99;100557.53;4998154;28;20465;-78
2023/05/15 02:07:16;;;;;;;19.23;17.33;;;;;;;10.35;89.55;100563.38;5001942;28;20387;-77
2023/05/15 02:09:46;;;;;;;19.10;17.10;;;;;;;10.23;89.99;100563.16;5018147;28;20967;-78
2023/05/15 02:12:17;;;;;;;18.98;17.08;;;;;;;10.17;90.14;100565.84;4998547;28;20442;-78
2023/05/15 02:14:50;;;;;;;20.35;17.05;;;;;;;10.15;89.86;100559.81;4998040;28;20218;-78
2023/05/15 02:17:22;;;;;;;18.00;16.30;;;;;;;10.26;89.36;100553.81;4995690;28;20193;-78
2023/05/15 02:19:52;;;;;;;17.57;14.97;;;;;;;10.49;88.24;100559.63;4996734;28;20439;-78
2023/05/15 02:22:21;;;;;;;18.27;16.50;;;;;;;10.54;87.37;100562.53;4983235;28;20432;-79
2023/05/15 02:24:50;;;;;;;19.40;17.40;;;;;;;10.46;87.33;100555.44;4998352;28;20445;-78
2023/05/15 02:27:25;;;;;;;20.20;18.00;;;;;;;10.42;88.03;100553.38;4998505;28;20214;-79
2023/05/15 02:30:08;;;;;;;22.20;16.13;;;;;;;10.48;88.64;100549.00;4998287;28;20253;-78
2023/05/15 02:32:50;;;;;;;18.88;16.92;;;;;;;10.36;88.29;100543.41;4998575;28;20444;-78
2023/05/15 02:35:27;;;;;;;17.60;15.90;;;;;;;10.26;89.18;100545.69;4997520;28;20234;-78
2023/05/15 02:38:00;;;;;;;17.95;16.20;;;;;;;10.30;90.17;100544.22;4997881;28;20504;-79
2023/05/15 02:40:32;;;;;;;22.57;16.33;;;;;;;10.22;90.40;100531.75;4997754;28;20191;-79
2023/05/15 02:43:02;;;;;;;18.90;16.90;;;;;;;10.15;90.68;100532.75;4996903;28;20432;-78
2023/05/15 02:45:34;;;;;;;23.67;18.20;;;;;;;10.26;90.73;100524.88;4996194;28;20476;-79
2023/05/15 02:48:05;;;;;;;19.00;16.97;;;;;;;10.26;89.90;100532.19;4995157;28;20429;-78
2023/05/15 02:50:34;;;;;;;18.98;17.08;;;;;;;10.20;89.64;100533.84;4995471;28;20532;-80
2023/05/15 02:53:04;;;;;;;21.20;18.05;;;;;;;10.21;89.49;100518.44;4994999;28;20212;-79
2023/05/15 02:55:33;;;;;;;19.40;17.40;;;;;;;10.27;88.79;100521.13;4995447;28;20249;-78
2023/05/15 02:58:03;;;;;;;21.52;18.42;;;;;;;10.27;88.42;100523.00;4990645;28;20441;-79
2023/05/15 03:00:34;;;;;;;20.30;18.10;;;;;;;10.24;89.19;100513.44;4989743;28;20201;-79
2023/05/15 03:03:04;;;;;;;19.97;18.00;;;;;;;10.19;89.34;100520.50;4993219;28;20425;-78
2023/05/15 03:05:33;;;;;;;20.07;18.33;;;;;;;10.17;89.39;100519.88;5011245;28;20489;-78
2023/05/15 03:08:03;;;;;;;19.37;17.37;;;;;;;10.18;89.07;100513.44;4996423;28;20409;-78
2023/05/15 03:10:32;;;;;;;20.33;17.67;;;;;;;10.20;88.92;100514.06;4995604;28;20533;-79
2023/05/15 03:13:02;;;;;;;20.80;18.73;;;;;;;10.34;87.49;100507.59;4996214;28;20199;-79
2023/05/15 03:15:33;;;;;;;24.07;18.20;;;;;;;10.31;87.29;100502.63;4995776;28;20229;-78
2023/05/15 03:18:02;;;;;;;20.17;18.17;;;;;;;10.41;86.59;100509.25;4995098;28;20484;-79
2023/05/15 03:20:31;;;;;;;18.43;16.63;;;;;;;10.39;86.65;100513.22;4994131;28;20464;-78
2023/05/15 03:23:01;;;;;;;19.92;17.30;;;;;;;10.39;86.33;100515.94;4996828;28;20441;-79
2023/05/15 03:25:30;;;;;;;24.17;16.48;;;;;;;10.37;86.36;100515.28;4997130;28;20213;-79
2023/05/15 03:28:00;;;;;;;19.25;16.98;;;;;;;10.17;87.14;100511.75;5001949;28;20228;-78
2023/05/15 03:30:29;;;;;;;19.13;17.23;;;;;;;10.18;87.56;100503.47;5012989;28;20212;-79
2023/05/15 03:33:02;;;;;;;19.95;17.83;;;;;;;10.20;87.67;100506.78;4996999;28;20445;-75
2023/05/15 03:35:32;;;;;;;19.17;16.57;;;;;;;10.29;87.42;100499.28;4996631;28;20219;-81
2023/05/15 03:38:01;;;;;;;19.08;17.38;;;;;;;10.33;87.13;100500.53;4996689;28;20488;-78
2023/05/15 03:40:30;;;;;;;18.10;16.10;;;;;;;10.39;86.29;100499.69;5028962;28;20202;-78
2023/05/15 03:42:59;;;;;;;17.97;16.37;;;;;;;10.50;85.28;100501.75;4997008;28;20184;-79
2023/05/15 03:45:29;;;;;;;22.17;19.83;;;;;;;10.48;85.40;100494.88;4996881;28;20453;-78
2023/05/15 03:48:00;;;;;;;19.40;17.35;;;;;;;10.46;85.16;100501.34;4996411;28;20201;-78
2023/05/15 03:50:29;;;;;;;18.23;16.42;;;;;;;10.38;85.35;100489.91;4995772;28;20202;-78
2023/05/15 03:53:00;;;;;;;17.67;16.13;;;;;;;10.52;84.33;100496.13;5003660;28;20186;-78
2023/05/15 03:55:29;;;;;;;18.45;16.50;;;;;;;10.70;84.93;100488.16;4994793;28;20244;-80
2023/05/15 03:57:59;;;;;;;16.73;15.00;;;;;;;11.44;80.28;100487.63;4996271;28;20195;-78
2023/05/15 04:00:29;;;;;;;18.58;16.55;;;;;;;12.13;76.97;100487.59;4996329;28;20191;-78
2023/05/15 04:02:59;;;;;;;17.10;15.50;;;;;;;12.46;75.28;100484.56;4992737;28;20201;-78
2023/05/15 04:05:29;;;;;;;18.07;15.90;;;;;;;13.16;72.61;100483.16;4996434;28;20491;-80
2023/05/15 04:08:01;;;;;;;16.70;15.10;;;;;;;13.73;69.43;100489.84;4996588;28;20453;-78
2023/05/15 04:10:32;;;;;;;17.37;15.67;;;;;;;14.42;66.84;100490.22;4994358;28;20548;-79
2023/05/15 04:13:01;;;;;;;18.93;16.00;;;;;;;15.06;62.41;100483.69;4994706;28;20555;-79
2023/05/15 04:15:31;;;;;;;15.10;13.70;;;;;;;15.59;60.51;100480.69;4990046;28;20486;-80
2023/05/15 04:18:02;;;;;;;16.47;14.93;;;;;;;16.27;58.85;100479.66;4977391;28;20430;-79
2023/05/15 04:20:32;;;;;;;19.73;16.63;;;;;;;16.21;58.21;100477.94;4990520;28;20443;-79
2023/05/15 04:23:02;;;;;;;17.47;15.67;;;;;;;16.37;57.50;100482.53;4976791;28;20475;-81
2023/05/15 04:25:32;;;;;;;24.33;14.90;;;;;;;16.77;55.81;100482.31;4989932;28;20451;-79
2023/05/15 04:28:01;;;;;;;18.23;14.47;;;;;;;17.04;54.41;100479.69;4995086;28;20439;-80
2023/05/15 04:30:31;;;;;;;15.20;13.90;;;;;;;16.90;53.94;100480.03;4994884;28;20386;-79
2023/05/15 04:33:01;;;;;;;15.30;13.90;;;;;;;17.18;53.71;100475.47;4995773;28;20455;-79
2023/05/15 04:35:31;;;;;;;17.10;12.30;;;;;;;18.00;51.46;100477.97;5010861;28;20449;-81
2023/05/15 04:38:01;;;;;;;16.17;14.60;;;;;;;17.32;52.81;100474.00;5011173;28;20449;-80
2023/05/15 04:40:31;;;;;;;29.60;17.20;;;;;;;16.36;55.35;100473.50;4996065;28;20390;-81
2023/05/15 04:43:02;;;;;;;22.93;15.10;;;;;;;15.50;58.07;100471.22;4998225;28;20417;-79
2023/05/15 04:45:32;;;;;;;16.33;13.50;;;;;;;14.62;60.79;100477.06;4998983;28;20485;-80
2023/05/15 04:48:03;;;;;;;16.70;15.00;;;;;;;13.96;63.67;100480.91;4999407;28;20427;-81
2023/05/15 04:50:32;;;;;;;15.73;14.20;;;;;;;13.40;65.60;100479.47;4998299;28;20409;-80
2023/05/15 04:53:02;;;;;;;18.97;15.00;;;;;;;13.01;67.91;100482.69;4997208;28;20482;-79
2023/05/15 04:55:31;;;;;;;20.73;16.30;;;;;;;12.75;69.88;100482.97;4992555;28;20485;-80
2023/05/15 04:58:01;;;;;;;19.77;17.30;;;;;;;12.76;70.66;100476.50;4984283;28;20424;-80
2023/05/15 05:00:30;;;;;;;20.50;16.17;;;;;;;12.85;70.76;100469.72;5018611;28;20459;-80
2023/05/15 05:03:03;;;;;;;23.03;16.30;;;;;;;14.15;68.12;100466.16;4982997;28;20438;-78
2023/05/15 05:05:32;;;;;;;18.60;13.90;;;;;;;15.67;61.98;100468.56;4981182;28;20512;-80
2023/05/15 05:08:01;;;;;;;21.37;14.27;;;;;;;17.16;56.84;100474.91;4981105;28;20448;-79
2023/05/15 05:10:31;;;;;;;14.63;13.13;;;;;;;18.38;52.50;100465.94;4980336;28;20470;-78
2023/05/15 05:13:00;;;;;;;18.60;13.20;;;;;;;19.44;49.54;100470.06;4979417;28;20474;-79
2023/05/15 05:15:29;;;;;;;16.70;13.30;;;;;;;20.44;46.42;100459.41;4999577;28;20482;-80
2023/05/15 05:17:58;;;;;;;21.20;13.13;;;;;;;20.51;45.92;100453.63;4983042;28;20420;-79
2023/05/15 05:20:30;;;;;;;13.50;12.20;;;;;;;20.57;44.87;100453.34;4983679;28;20435;-79
2023/05/15 05:22:59;;;;;;;14.60;13.17;;;;;;;21.03;44.12;100451.25;4986349;28;20441;-79
2023/05/15 05:25:30;;;;;;;16.20;14.60;;;;;;;19.96;46.82;100439.63;5002625;28;20478;-79
2023/05/15 05:28:00;;;;;;;14.90;13.60;;;;;;;17.89;52.42;100438.75;4981809;28;20441;-79
2023/05/15 05:30:29;;;;;;;15.67;14.47;;;;;;;16.73;56.08;100441.03;4979331;28;20889;-79
2023/05/15 05:32:58;;;;;;;16.67;14.97;;;;;;;16.07;58.20;100429.13;5011449;28;20436;-78
2023/05/15 05:35:29;;;;;;;15.90;14.23;;;;;;;15.68;59.18;100432.88;4978526;28;21005;-79
2023/05/15 05:37:59;;;;;;;14.37;13.07;;;;;;;15.67;59.28;100436.66;4979720;28;20398;-79
2023/05/15 05:40:29;;;;;;;13.57;12.37;;;;;;;15.67;59.64;100436.66;4981084;28;20414;-78
2023/05/15 05:43:00;;;;;;;17.90;13.83;;;;;;;15.56;59.43;100434.81;4983549;28;20511;-82
2023/05/15 05:45:30;;;;;;;15.53;13.50;;;;;;;15.55;61.00;100430.44;4981310;28;20696;-78
2023/05/15 05:47:59;;;;;;;16.43;14.70;;;;;;;15.66;60.74;100432.28;4976227;28;20432;-79
2023/05/15 05:50:30;;;;;;;15.40;14.00;;;;;;;15.65;60.82;100430.59;4978327;28;20929;-81
2023/05/15 05:52:59;;;;;;;23.70;14.30;;;;;;;15.85;59.86;100428.22;4980648;28;20489;-80
2023/05/15 05:55:28;;;;;;;15.30;13.80;;;;;;;15.58;60.92;100424.50;4980522;28;20471;-79
2023/05/15 05:57:57;;;;;;;20.30;14.57;;;;;;;15.47;62.07;100425.34;4981051;28;20418;-79
2023/05/15 06:00:27;;;;;;;17.67;15.93;;;;;;;15.34;63.17;100425.66;4982628;28;20418;-82
2023/05/15 06:03:02;;;;;;;16.70;15.20;;;;;;;15.26;65.10;100420.59;4989164;28;20433;-79
2023/05/15 06:05:33;;;;;;;16.17;14.57;;;;;;;15.44;63.17;100417.69;4985997;28;20473;-79
2023/05/15 06:08:03;;;;;;;16.60;13.90;;;;;;;15.60;63.18;100412.25;4980062;28;20406;-79
2023/05/15 06:10:32;;;;;;;15.70;13.67;;;;;;;15.79;61.37;100412.00;4983774;28;20411;-78
2023/05/15 06:13:01;;;;;;;15.90;14.23;;;;;;;16.00;59.65;100409.38;4976367;28;20469;-79
2023/05/15 06:15:31;;;;;;;13.77;12.43;;;;;;;16.20;58.47;100402.56;4981614;28;20448;-80
2023/05/15 06:18:01;;;;;;;20.63;18.97;;;;;;;16.40;57.00;100402.84;4986421;28;20947;-78
2023/05/15 06:20:31;;;;;;;15.80;13.93;;;;;;;16.48;58.27;100411.44;4981615;28;20411;-78
2023/05/15 06:23:00;;;;;;;15.07;13.73;;;;;;;16.62;58.00;100411.09;4976762;28;20408;-81
2023/05/15 06:25:31;;;;;;;15.33;13.53;;;;;;;16.58;57.68;100410.78;4971930;28;20505;-78
2023/05/15 06:28:01;;;;;;;13.07;11.77;;;;;;;16.69;57.89;100411.75;4979469;28;20985;-80
2023/05/15 06:30:30;;;;;;;14.40;12.13;;;;;;;16.69;57.47;100407.09;5005432;28;20952;-78
2023/05/15 06:32:59;;;;;;;13.70;12.43;;;;;;;16.69;56.96;100401.63;4992361;28;20478;-79
2023/05/15 06:35:29;;;;;;;15.00;13.43;;;;;;;16.78;56.85;100402.00;4979773;28;20546;-79
2023/05/15 06:38:00;;;;;;;16.93;12.70;;;;;;;16.78;56.16;100396.56;4985306;28;20439;-80
2023/05/15 06:40:30;;;;;;;17.90;15.37;;;;;;;16.78;56.06;100394.66;4977648;28;20559;-79
2023/05/15 06:42:59;;;;;;;17.17;15.37;;;;;;;16.81;56.98;100388.66;4975690;28;20423;-78
2023/05/15 06:45:28;;;;;;;16.07;13.07;;;;;;;16.85;56.27;100392.53;4976030;28;20435;-77
2023/05/15 06:47:58;;;;;;;14.03;12.73;;;;;;;17.02;55.80;100388.91;4977189;28;20426;-80
2023/05/15 06:50:29;;;;;;;14.03;11.20;;;;;;;17.12;55.54;100387.09;4975085;28;20636;-80
2023/05/15 06:53:01;;;;;;;15.30;13.80;;;;;;;17.42;54.44;100389.31;4980233;28;20454;-79
2023/05/15 06:55:35;;;;;;;14.63;13.13;;;;;;;17.54;54.74;100386.41;4966083;28;20447;-78
2023/05/15 06:58:06;;;;;;;16.97;15.47;;;;;;;17.68;54.25;100390.38;4973923;28;20817;-79
2023/05/15 07:00:36;;;;;;;20.30;18.40;;;;;;;17.88;53.76;100382.34;5010499;28;20977;-80
2023/05/15 07:03:05;;;;;;;14.97;13.60;;;;;;;17.94;53.36;100384.03;4980334;28;20424;-79
2023/05/15 07:05:35;;;;;;;20.13;18.27;;;;;;;17.99;53.07;100385.97;4988901;28;20864;-80
2023/05/15 07:08:05;;;;;;;20.07;17.83;;;;;;;18.07;53.83;100377.28;4980142;28;20443;-80
2023/05/15 07:10:35;;;;;;;20.20;14.53;;;;;;;18.09;54.06;100377.84;4987492;28;20480;-80
2023/05/15 07:13:04;;;;;;;12.73;11.10;;;;;;;18.26;52.29;100378.47;4988410;28;20444;-81
2023/05/15 07:15:33;;;;;;;15.37;12.80;;;;;;;18.27;51.89;100374.66;4993239;28;20463;-79
2023/05/15 07:18:04;;;;;;;17.73;13.00;;;;;;;18.24;52.25;100378.78;4984971;28;20458;-78
2023/05/15 07:20:34;;;;;;;15.40;11.77;;;;;;;18.62;50.96;100371.31;4996715;28;20430;-82
2023/05/15 07:23:05;;;;;;;20.03;12.20;;;;;;;18.59;50.57;100375.41;4997859;28;20489;-80
2023/05/15 07:25:35;;;;;;;13.27;12.13;;;;;;;18.71;50.84;100374.34;5008323;28;20453;-83
2023/05/15 07:28:05;;;;;;;14.30;11.90;;;;;;;18.47;51.56;100363.81;4988528;28;20417;-81
2023/05/15 07:30:35;;;;;;;13.77;10.70;;;;;;;18.52;51.07;100361.09;4990442;28;20415;-79
2023/05/15 07:33:04;;;;;;;18.27;16.63;;;;;;;18.44;49.89;100360.78;4985354;28;21147;-80
2023/05/15 07:35:34;;;;;;;15.77;14.10;;;;;;;18.70;49.51;100361.72;4989162;28;20477;-80
2023/05/15 07:38:05;;;;;;;12.07;10.87;;;;;;;18.56;50.45;100362.25;4987510;28;20458;-81
2023/05/15 07:40:36;;;;;;;18.27;11.20;;;;;;;18.73;50.77;100366.69;4998122;28;20469;-83
2023/05/15 07:46:29;;;;;;;11.17;9.53;;;;;;;19.14;49.75;100357.47;5089549;27;20551;-70
2023/05/15 07:48:58;;;;;;;12.10;9.83;;;;;;;19.23;47.43;100366.00;5074354;28;20442;-71
2023/05/15 07:51:27;;;;;;;12.53;10.97;;;;;;;19.08;47.81;100353.06;5073997;28;20440;-71
2023/05/15 07:53:57;;;;;;;12.03;9.40;;;;;;;19.13;48.52;100349.50;5090424;28;20448;-71
2023/05/15 07:56:27;;;;;;;13.93;9.30;;;;;;;19.24;49.65;100348.44;5069303;28;20418;-71
2023/05/15 07:59:00;;;;;;;14.83;13.07;;;;;;;19.36;48.30;100349.84;5070140;28;20425;-70
2023/05/15 08:01:31;;;;;;;13.67;11.10;;;;;;;19.45;48.15;100345.50;5069374;28;20481;-71
2023/05/15 08:04:01;;;;;;;11.77;10.57;;;;;;;19.20;48.28;100337.19;5072239;28;20425;-71
2023/05/15 08:06:31;;;;;;;12.20;11.23;;;;;;;18.91;48.56;100334.13;5069808;28;20992;-72
2023/05/15 08:09:01;;;;;;;11.70;10.70;;;;;;;19.01;48.67;100336.06;5069827;28;20428;-74
2023/05/15 08:11:30;;;;;;;12.83;10.90;;;;;;;18.83;49.16;100331.91;5068266;28;20514;-70
2023/05/15 08:13:59;;;;;;;11.30;10.13;;;;;;;19.03;49.41;100333.88;5069293;28;20494;-71
2023/05/15 08:16:30;;;;;;;12.53;10.63;;;;;;;18.97;49.67;100329.50;5067036;28;20405;-70
2023/05/15 08:19:02;;;;;;;12.33;10.93;;;;;;;19.09;49.96;100325.38;5066920;28;20422;-71
2023/05/15 08:21:31;;;;;;;16.50;13.07;;;;;;;19.02;51.22;100324.84;5068772;28;20572;-72
2023/05/15 08:24:01;;;;;;;10.33;9.43;;;;;;;19.18;49.78;100325.66;5068328;28;20549;-71
2023/05/15 08:26:30;;;;;;;10.40;9.53;;;;;;;19.18;49.30;100324.84;5065958;28;20440;-72
2023/05/15 08:28:59;;;;;;;12.73;9.80;;;;;;;19.08;50.22;100320.16;5068859;28;20422;-71
2023/05/15 08:31:30;;;;;;;10.57;9.57;;;;;;;18.91;49.28;100322.34;5071221;28;20427;-70
2023/05/15 08:33:59;;;;;;;10.47;9.40;;;;;;;18.81;50.69;100319.56;5067839;28;20508;-70
2023/05/15 08:36:28;;;;;;;9.83;9.03;;;;;;;18.78;51.00;100320.13;5069155;28;20428;-72
2023/05/15 08:38:57;;;;;;;10.40;9.07;;;;;;;18.66;51.65;100312.94;5068533;28;21009;-71
2023/05/15 08:41:33;;;;;;;15.00;9.93;;;;;;;18.67;52.26;100314.59;5068808;28;20518;-71
2023/05/15 08:44:07;;;;;;;12.50;9.70;;;;;;;18.60;52.56;100305.81;5065066;28;20446;-71
2023/05/15 08:46:37;;;;;;;11.63;10.63;;;;;;;18.54;52.46;100304.13;5068293;28;20440;-72
2023/05/15 08:49:15;;;;;;;11.30;10.20;;;;;;;18.72;51.95;100294.63;5067917;28;20396;-71
2023/05/15 08:51:44;;;;;;;10.53;9.53;;;;;;;18.73;52.48;100300.91;5068650;28;20496;-72
2023/05/15 08:54:14;;;;;;;10.97;9.87;;;;;;;18.73;51.60;100289.97;5064123;28;20461;-70
2023/05/15 08:56:43;;;;;;;8.93;8.13;;;;;;;18.76;52.11;100292.16;5064857;28;20514;-70
2023/05/15 08:59:12;;;;;;;12.13;9.00;;;;;;;18.79;51.92;100288.84;5054580;28;20438;-71
2023/05/15 09:01:44;;;;;;;10.53;9.53;;;;;;;19.05;50.72;100288.63;5055166;28;20433;-71
2023/05/15 09:04:25;;;;;;;11.60;9.80;;;;;;;19.13;50.27;100284.53;5052289;28;20497;-70
2023/05/15 09:06:55;;;;;;;18.77;10.07;;;;;;;19.29;50.15;100286.19;5048255;28;20411;-72
2023/05/15 09:09:25;;;;;;;11.80;10.60;;;;;;;19.45;49.67;100282.38;5050519;28;20440;-72
2023/05/15 09:11:55;;;;;;;9.83;8.83;;;;;;;19.30;48.96;100281.53;5054824;28;20427;-71
2023/05/15 09:14:24;;;;;;;16.50;10.73;;;;;;;19.41;49.61;100286.72;5049722;28;20426;-71
2023/05/15 09:16:55;;;;;;;12.47;9.30;;;;;;;19.63;48.45;100280.16;5051308;28;20782;-71
2023/05/15 09:19:24;;;;;;;15.03;12.80;;;;;;;19.55;48.45;100275.25;5054516;28;20427;-72
2023/05/15 09:21:54;;;;;;;11.07;9.53;;;;;;;19.67;47.23;100278.50;5050387;28;20760;-71
2023/05/15 09:24:27;;;;;;;11.90;9.80;;;;;;;19.48;47.80;100279.06;5046987;28;20503;-71
2023/05/15 09:27:03;;;;;;;11.17;8.70;;;;;;;19.94;49.26;100268.03;5052252;28;20461;-70
2023/05/15 09:29:34;;;;;;;13.30;8.40;;;;;;;20.24;47.43;100261.56;5059832;28;20405;-71
2023/05/15 09:32:08;;;;;;;18.87;10.00;;;;;;;20.19;47.08;100269.84;5057511;28;20546;-71
2023/05/15 09:34:39;;;;;;;12.50;9.50;;;;;;;19.87;46.97;100264.72;5055983;28;20425;-71
2023/05/15 09:37:10;;;;;;;12.43;8.50;;;;;;;19.64;46.81;100262.59;5059790;28;20398;-71
2023/05/15 09:39:42;;;;;;;11.17;10.13;;;;;;;19.73;47.10;100271.91;5054332;28;20439;-72
2023/05/15 09:42:12;;;;;;;8.90;8.07;;;;;;;19.99;46.81;100269.94;5048206;28;20400;-70
2023/05/15 09:44:43;;;;;;;10.20;8.80;;;;;;;20.14;46.33;100272.63;5044575;28;20867;-71
2023/05/15 09:47:15;;;;;;;10.63;9.30;;;;;;;19.90;46.87;100269.66;5053632;28;21003;-70
2023/05/15 09:49:45;;;;;;;9.53;8.60;;;;;;;20.04;47.14;100261.69;5054784;28;20410;-70
2023/05/15 09:52:16;;;;;;;10.03;9.23;;;;;;;20.01;47.89;100260.31;5055754;28;20447;-71
2023/05/15 09:54:46;;;;;;;15.90;10.90;;;;;;;19.98;48.95;100265.53;5054145;28;20441;-69
2023/05/15 09:57:23;;;;;;;13.40;9.80;;;;;;;19.95;49.20;100261.41;5053558;28;20405;-71
2023/05/15 09:59:52;;;;;;;8.30;7.50;;;;;;;20.15;47.23;100264.09;5053271;28;20590;-71
2023/05/15 10:02:30;;;;;;;11.40;7.70;;;;;;;20.01;46.67;100262.22;5052372;28;20401;-71
2023/05/15 10:05:00;;;;;;;9.30;8.50;;;;;;;19.75;46.22;100264.22;5055744;28;20996;-71
2023/05/15 10:07:30;;;;;;;8.43;6.90;;;;;;;19.72;46.11;100265.59;5053314;28;20426;-71
2023/05/15 10:10:00;;;;;;;7.83;7.13;;;;;;;19.60;46.89;100264.25;5051355;28;20631;-71
2023/05/15 10:12:30;;;;;;;7.93;7.07;;;;;;;19.26;47.64;100261.22;5049134;28;20534;-71
2023/05/15 10:15:01;;;;;;;7.50;6.80;;;;;;;19.30;48.04;100265.06;5053030;28;20464;-70
2023/05/15 10:17:34;;;;;;;9.70;8.77;;;;;;;19.31;48.78;100269.47;5050808;28;20757;-71
2023/05/15 10:20:05;;;;;;;12.80;7.17;;;;;;;19.39;49.00;100263.41;5050589;28;20425;-71
2023/05/15 10:22:40;;;;;;;12.40;8.43;;;;;;;19.57;48.98;100267.53;5050501;28;20399;-70
2023/05/15 10:25:18;;;;;;;7.63;6.93;;;;;;;19.71;49.55;100266.69;5060420;28;20830;-71
2023/05/15 10:27:50;;;;;;;7.90;7.20;;;;;;;19.46;48.80;100266.75;5050280;28;20489;-71
2023/05/15 10:30:21;;;;;;;8.20;7.50;;;;;;;19.07;49.86;100267.22;5050634;28;20409;-70
2023/05/15 10:32:52;;;;;;;7.77;7.03;;;;;;;19.07;50.02;100263.69;5051280;28;20442;-71
2023/05/15 10:35:23;;;;;;;8.50;7.70;;;;;;;18.96;50.90;100262.03;5051436;28;20557;-72
2023/05/15 10:37:52;;;;;;;9.57;7.63;;;;;;;19.10;51.21;100257.66;5051636;28;20433;-70
2023/05/15 10:40:21;;;;;;;8.60;7.30;;;;;;;19.10;51.22;100257.66;5051612;28;20431;-71
2023/05/15 10:42:51;;;;;;;7.47;6.77;;;;;;;19.03;51.43;100257.09;5050710;28;20456;-71
2023/05/15 10:45:20;;;;;;;8.43;7.13;;;;;;;18.45;54.84;100261.88;5051764;28;20450;-70
2023/05/15 10:47:52;;;;;;;8.57;7.80;;;;;;;18.06;55.82;100263.34;5050963;28;20416;-71
2023/05/15 10:50:21;;;;;;;8.27;6.80;;;;;;;18.05;56.11;100250.78;5050710;28;20401;-71
2023/05/15 10:52:52;;;;;;;7.70;7.00;;;;;;;18.54;60.30;100243.06;5051120;28;20397;-70
2023/05/15 10:55:22;;;;;;;6.23;5.30;;;;;;;19.02;51.95;100234.34;5051089;28;20512;-71
2023/05/15 10:57:52;;;;;;;8.47;7.67;;;;;;;19.48;53.69;100226.94;5049555;28;20596;-68
2023/05/15 11:00:31;;;;;;;7.97;7.27;;;;;;;20.03;54.45;100216.91;5049914;28;20480;-72
2023/05/15 11:03:02;;;;;;;6.20;5.60;;;;;;;20.37;51.76;100217.06;5047153;28;20952;-70
2023/05/15 11:06:07;;;;;;;6.53;5.87;;;;;;;20.78;49.80;100214.88;5049558;28;20451;-70
2023/05/15 11:08:37;;;;;;;6.67;5.70;;;;;;;20.94;47.75;100216.41;5051323;28;20400;-71
2023/05/15 11:11:06;;;;;;;7.83;7.07;;;;;;;21.11;48.62;100205.78;5047329;28;21001;-71
2023/05/15 11:14:05;;;;;;;6.73;5.97;;;;;;;21.23;47.06;100217.28;5052859;28;20923;-71
2023/05/15 11:17:03;;;;;;;7.83;7.03;;;;;;;21.33;45.96;100210.03;5042405;28;20924;-71
2023/05/15 11:19:38;;;;;;;6.87;4.80;;;;;;;20.73;44.95;100209.41;5044940;28;20493;-72
2023/05/15 11:22:21;;;;;;;6.60;5.70;;;;;;;20.90;45.34;100204.34;5050256;28;20465;-69
2023/05/15 11:24:52;;;;;;;4.93;4.57;;;;;;;20.78;44.36;100201.13;5049516;28;20553;-70
2023/05/15 11:27:23;;;;;;;5.20;4.70;;;;;;;20.85;44.22;100201.63;5053347;28;20458;-70
2023/05/15 11:30:07;;;;;;;9.00;6.40;;;;;;;20.86;43.92;100195.03;5053409;28;20436;-70
2023/05/15 11:32:50;;;;;;;5.60;5.03;;;;;;;21.41;43.32;100195.66;5046823;28;20473;-70